Time;durP1;ratioP1;P1;durP2;ratioP2;P2;SDS_P1;SDS_P2;PMS_P1;PMS_P2;Temp;Humidity;BMP_temperature;BMP_pressure;BME280_temperature;BME280_humidity;BME280_pressure;Samples;Min_cycle;Max_cycle;Signal;HPM_P1;HPM_P2
2022/06/15 00:01:30;;;;;;;3.80;3.35;;;;;;;;;;5071813;28;20423;-54
2022/06/15 00:03:56;;;;;;;4.32;3.17;;;;;;;;;;5072090;28;20115;-52
2022/06/15 00:06:28;;;;;;;5.90;3.65;;;;;;;;;;5071718;28;20038;-54
2022/06/15 00:08:56;;;;;;;8.25;3.30;;;;;;;;;;5071997;28;20055;-54
2022/06/15 00:11:21;;;;;;;7.50;3.88;;;;;;;;;;5071833;28;20024;-54
2022/06/15 00:13:47;;;;;;;6.03;3.20;;;;;;;;;;5071703;28;20033;-53
2022/06/15 00:16:14;;;;;;;5.13;3.60;;;;;;;;;;5071575;28;20036;-58
2022/06/15 00:18:40;;;;;;;5.43;3.63;;;;;;;;;;5071725;28;20048;-52
2022/06/15 00:21:06;;;;;;;14.48;3.67;;;;;;;;;;5071458;28;20496;-49
2022/06/15 00:23:34;;;;;;;7.35;3.92;;;;;;;;;;5071475;28;20054;-48
2022/06/15 00:25:59;;;;;;;6.78;4.13;;;;;;;;;;5071466;28;20031;-48
2022/06/15 00:28:26;;;;;;;7.82;4.45;;;;;;;;;;5071422;28;20036;-49
2022/06/15 00:30:52;;;;;;;7.95;4.07;;;;;;;;;;5071457;28;20028;-48
2022/06/15 00:33:19;;;;;;;5.85;3.63;;;;;;;;;;5071151;28;20036;-49
2022/06/15 00:36:00;;;;;;;4.10;3.70;;;;;;;;;;5071560;28;20085;-49
2022/06/15 00:38:28;;;;;;;5.40;4.25;;;;;;;;;;5071365;28;20037;-50
2022/06/15 00:40:54;;;;;;;12.05;3.83;;;;;;;;;;5070071;28;20032;-52
2022/06/15 00:43:35;;;;;;;8.30;3.80;;;;;;;;;;5071010;28;20016;-47
2022/06/15 00:46:30;;;;;;;3.67;3.35;;;;;;;;;;5071140;28;20033;-48
2022/06/15 00:49:04;;;;;;;5.07;3.53;;;;;;;;;;5026163;28;20388;-48
2022/06/15 00:51:30;;;;;;;4.32;3.72;;;;;;;;;;5072573;28;20028;-48
2022/06/15 00:53:57;;;;;;;5.93;3.45;;;;;;;;;;5072814;28;20054;-47
2022/06/15 00:56:24;;;;;;;6.70;4.13;;;;;;;;;;5072618;28;20021;-49
2022/06/15 00:58:53;;;;;;;5.18;3.60;;;;;;;;;;5072599;28;20040;-50
2022/06/15 01:01:18;;;;;;;5.15;3.50;;;;;;;;;;5072678;28;20023;-51
2022/06/15 01:03:46;;;;;;;7.35;4.68;;;;;;;;;;5072255;28;20037;-52
2022/06/15 01:06:27;;;;;;;7.10;3.50;;;;;;;;;;5072535;28;20021;-51
2022/06/15 01:09:06;;;;;;;6.45;3.47;;;;;;;;;;5072523;28;20372;-50
2022/06/15 01:11:31;;;;;;;4.05;3.47;;;;;;;;;;5072488;28;20513;-48
2022/06/15 01:14:09;;;;;;;6.35;3.83;;;;;;;;;;5072442;28;20032;-48
2022/06/15 01:16:52;;;;;;;9.55;3.95;;;;;;;;;;5072166;28;20017;-48
2022/06/15 01:19:42;;;;;;;7.00;3.53;;;;;;;;;;5071599;28;20032;-49
2022/06/15 01:22:56;;;;;;;4.68;3.05;;;;;;;;;;5071955;28;20044;-50
2022/06/15 01:25:42;;;;;;;6.38;3.67;;;;;;;;;;5063534;28;20036;-48
2022/06/15 01:28:26;;;;;;;8.82;4.30;;;;;;;;;;5072076;28;20426;-47
2022/06/15 01:31:06;;;;;;;4.95;3.55;;;;;;;;;;5072069;28;20464;-48
2022/06/15 01:34:01;;;;;;;4.40;3.80;;;;;;;;;;5071446;28;20052;-48
2022/06/15 01:36:52;;;;;;;6.13;4.05;;;;;;;;;;5034122;28;20033;-49
2022/06/15 01:39:33;;;;;;;8.68;3.92;;;;;;;;;;5071206;28;20042;-50
2022/06/15 01:42:11;;;;;;;9.07;3.75;;;;;;;;;;5072064;28;20476;-48
2022/06/15 01:44:43;;;;;;;6.72;4.18;;;;;;;;;;5071988;28;20529;-49
2022/06/15 01:47:18;;;;;;;4.20;3.65;;;;;;;;;;5072269;28;20456;-48
2022/06/15 01:49:50;;;;;;;6.28;3.60;;;;;;;;;;5072256;28;20032;-49
2022/06/15 01:52:20;;;;;;;6.85;4.00;;;;;;;;;;5073595;28;20622;-48
2022/06/15 01:54:57;;;;;;;4.90;3.78;;;;;;;;;;5075864;28;20104;-48
2022/06/15 01:57:23;;;;;;;7.85;4.05;;;;;;;;;;5075988;28;20036;-50
2022/06/15 02:00:06;;;;;;;5.22;4.10;;;;;;;;;;5076055;28;20032;-49
2022/06/15 02:02:44;;;;;;;4.53;3.60;;;;;;;;;;5075748;28;20415;-48
2022/06/15 02:05:23;;;;;;;5.15;3.47;;;;;;;;;;5075988;28;20028;-49
2022/06/15 02:07:57;;;;;;;6.18;3.88;;;;;;;;;;5057693;28;20078;-48
2022/06/15 02:10:29;;;;;;;4.82;4.00;;;;;;;;;;5075852;28;20048;-50
2022/06/15 02:13:07;;;;;;;4.63;3.63;;;;;;;;;;5075655;28;20025;-48
2022/06/15 02:15:35;;;;;;;4.45;3.22;;;;;;;;;;5075477;28;20040;-48
2022/06/15 02:18:07;;;;;;;5.78;3.47;;;;;;;;;;5075653;28;20034;-48
2022/06/15 02:20:38;;;;;;;5.32;3.70;;;;;;;;;;5075349;28;20543;-48
2022/06/15 02:23:08;;;;;;;6.00;3.85;;;;;;;;;;5075248;28;20060;-51
2022/06/15 02:25:36;;;;;;;7.33;4.17;;;;;;;;;;5075610;28;20021;-48
2022/06/15 02:28:03;;;;;;;6.65;4.30;;;;;;;;;;5075293;28;20091;-51
2022/06/15 02:30:30;;;;;;;4.38;3.90;;;;;;;;;;5075405;28;20032;-49
2022/06/15 02:32:55;;;;;;;5.60;3.60;;;;;;;;;;5075177;28;20089;-48
2022/06/15 02:35:21;;;;;;;6.53;4.32;;;;;;;;;;5075073;28;20142;-48
2022/06/15 02:37:49;;;;;;;7.00;4.00;;;;;;;;;;5075031;28;20077;-49
2022/06/15 02:40:20;;;;;;;4.28;3.80;;;;;;;;;;5075253;28;20109;-47
2022/06/15 02:42:46;;;;;;;5.88;3.90;;;;;;;;;;5075298;28;20028;-52
2022/06/15 02:45:18;;;;;;;5.82;4.60;;;;;;;;;;5074892;28;20107;-50
2022/06/15 02:47:44;;;;;;;6.78;4.18;;;;;;;;;;5075256;28;20031;-53
2022/06/15 02:50:12;;;;;;;5.72;4.25;;;;;;;;;;5075160;28;20091;-52
2022/06/15 02:52:50;;;;;;;5.70;4.30;;;;;;;;;;5074702;28;20029;-52
2022/06/15 02:55:17;;;;;;;5.60;4.05;;;;;;;;;;5074757;28;20024;-51
2022/06/15 02:57:53;;;;;;;18.58;4.68;;;;;;;;;;5074648;28;20024;-50
2022/06/15 03:00:21;;;;;;;9.32;4.07;;;;;;;;;;5074634;28;20050;-53
2022/06/15 03:02:48;;;;;;;4.50;4.10;;;;;;;;;;5074717;28;20036;-52
2022/06/15 03:05:14;;;;;;;4.63;4.00;;;;;;;;;;5073964;28;20357;-53
2022/06/15 03:07:39;;;;;;;7.68;4.00;;;;;;;;;;5074753;28;20024;-51
2022/06/15 03:10:05;;;;;;;6.30;3.95;;;;;;;;;;5074495;28;20364;-49
2022/06/15 03:12:30;;;;;;;4.78;3.65;;;;;;;;;;5056888;28;20028;-52
2022/06/15 03:14:56;;;;;;;6.53;4.35;;;;;;;;;;5074668;28;20368;-51
2022/06/15 03:17:21;;;;;;;11.27;4.60;;;;;;;;;;5074568;28;20032;-51
2022/06/15 03:19:47;;;;;;;5.22;3.90;;;;;;;;;;5074603;28;20050;-52
2022/06/15 03:22:12;;;;;;;6.90;3.88;;;;;;;;;;5074093;28;20067;-49
2022/06/15 03:24:38;;;;;;;4.07;3.67;;;;;;;;;;5074292;28;20130;-54
2022/06/15 03:27:04;;;;;;;4.43;3.40;;;;;;;;;;5074108;28;20032;-50
2022/06/15 03:29:30;;;;;;;4.32;3.42;;;;;;;;;;5074430;28;20028;-52
2022/06/15 03:31:56;;;;;;;4.38;3.60;;;;;;;;;;5074112;28;20541;-52
2022/06/15 03:34:21;;;;;;;6.45;3.30;;;;;;;;;;5056130;28;20029;-52
2022/06/15 03:36:47;;;;;;;5.80;3.10;;;;;;;;;;5074223;28;20059;-51
2022/06/15 03:39:12;;;;;;;6.07;3.63;;;;;;;;;;5073961;28;20439;-53
2022/06/15 03:41:38;;;;;;;8.68;3.78;;;;;;;;;;5073808;28;20020;-52
2022/06/15 03:44:04;;;;;;;4.93;3.40;;;;;;;;;;5073934;28;20060;-50
2022/06/15 03:46:29;;;;;;;13.93;3.45;;;;;;;;;;5073790;28;20032;-51
2022/06/15 03:48:55;;;;;;;5.72;3.58;;;;;;;;;;5073692;28;20037;-49
2022/06/15 03:51:21;;;;;;;11.75;3.55;;;;;;;;;;5073570;28;20028;-51
2022/06/15 03:53:46;;;;;;;7.95;3.60;;;;;;;;;;5073926;28;20035;-50
2022/06/15 03:56:12;;;;;;;5.53;3.33;;;;;;;;;;5073856;28;20036;-51
2022/06/15 03:58:37;;;;;;;8.07;3.80;;;;;;;;;;5073497;28;20035;-51
2022/06/15 04:01:03;;;;;;;7.53;3.40;;;;;;;;;;5073462;28;20027;-48
2022/06/15 04:03:29;;;;;;;15.32;3.83;;;;;;;;;;5055540;28;20032;-49
2022/06/15 04:05:57;;;;;;;6.13;3.30;;;;;;;;;;5073598;28;20027;-49
2022/06/15 04:08:35;;;;;;;4.57;2.90;;;;;;;;;;5073500;28;20028;-51
2022/06/15 04:11:58;;;;;;;6.63;3.20;;;;;;;;;;5073311;28;20028;-53
2022/06/15 04:14:00;;;;;;;6.72;3.47;;;;;;;;;;5073129;28;20029;-52
2022/06/15 04:16:26;;;;;;;6.15;3.80;;;;;;;;;;5073262;28;20421;-51
2022/06/15 04:18:51;;;;;;;7.03;3.75;;;;;;;;;;5073358;28;20078;-52
2022/06/15 04:21:17;;;;;;;6.25;3.38;;;;;;;;;;5073187;28;20016;-52
2022/06/15 04:23:42;;;;;;;13.73;6.82;;;;;;;;;;5073418;28;20483;-52
2022/06/15 04:26:09;;;;;;;16.83;8.35;;;;;;;;;;5072957;28;20059;-51
2022/06/15 04:28:39;;;;;;;9.27;5.22;;;;;;;;;;5073215;28;20020;-52
2022/06/15 04:31:05;;;;;;;8.65;4.65;;;;;;;;;;5073141;28;20426;-53
2022/06/15 04:33:31;;;;;;;7.63;3.40;;;;;;;;;;5073110;28;20028;-52
2022/06/15 04:35:57;;;;;;;7.32;4.00;;;;;;;;;;5072740;28;20028;-52
2022/06/15 04:38:23;;;;;;;4.50;2.65;;;;;;;;;;5072629;28;20036;-50
2022/06/15 04:40:49;;;;;;;5.18;3.03;;;;;;;;;;5072673;28;20469;-50
2022/06/15 04:43:15;;;;;;;10.60;3.60;;;;;;;;;;5072944;28;20051;-50
2022/06/15 04:45:40;;;;;;;5.65;2.58;;;;;;;;;;5055129;28;20029;-53
2022/06/15 04:48:06;;;;;;;2.42;2.00;;;;;;;;;;5072649;28;20021;-49
2022/06/15 04:50:32;;;;;;;7.90;3.40;;;;;;;;;;5072909;28;20020;-50
2022/06/15 04:52:59;;;;;;;5.35;4.07;;;;;;;;;;5072608;28;20028;-52
2022/06/15 04:55:25;;;;;;;10.93;7.05;;;;;;;;;;5072866;28;20028;-52
2022/06/15 04:57:54;;;;;;;11.27;5.55;;;;;;;;;;5072411;28;20391;-49
2022/06/15 05:00:21;;;;;;;13.48;5.25;;;;;;;;;;5072537;28;20047;-53
2022/06/15 05:02:47;;;;;;;16.48;6.90;;;;;;;;;;5072711;28;20070;-51
2022/06/15 05:05:12;;;;;;;10.93;5.97;;;;;;;;;;5072518;28;20418;-50
2022/06/15 05:07:38;;;;;;;7.88;3.75;;;;;;;;;;5072720;28;20032;-51
2022/06/15 05:10:05;;;;;;;10.60;5.53;;;;;;;;;;5072506;28;20039;-49
2022/06/15 05:12:31;;;;;;;9.30;4.97;;;;;;;;;;5072366;28;20116;-52
2022/06/15 05:14:56;;;;;;;3.15;1.90;;;;;;;;;;5072358;28;20060;-51
2022/06/15 05:17:24;;;;;;;4.45;2.63;;;;;;;;;;5072538;28;20028;-52
2022/06/15 05:19:49;;;;;;;6.53;2.00;;;;;;;;;;5072547;28;20029;-46
2022/06/15 05:22:15;;;;;;;3.28;2.20;;;;;;;;;;5072149;28;20451;-49
2022/06/15 05:24:41;;;;;;;2.45;1.83;;;;;;;;;;5072591;28;20067;-50
2022/06/15 05:27:08;;;;;;;4.65;1.92;;;;;;;;;;5073656;28;20496;-47
2022/06/15 05:29:35;;;;;;;4.30;1.90;;;;;;;;;;5076679;28;20074;-50
2022/06/15 05:32:03;;;;;;;1.60;1.50;;;;;;;;;;5076590;28;20020;-47
2022/06/15 05:34:29;;;;;;;4.95;3.83;;;;;;;;;;5076442;28;20020;-47
2022/06/15 05:36:54;;;;;;;1.65;1.30;;;;;;;;;;5076182;28;20031;-47
2022/06/15 05:39:20;;;;;;;3.35;1.90;;;;;;;;;;5076187;28;20031;-48
2022/06/15 05:41:45;;;;;;;7.47;2.70;;;;;;;;;;5075655;28;20048;-51
2022/06/15 05:46:39;;;;;;;5.07;2.55;;;;;;;;;;5076282;28;20460;-47
2022/06/15 05:49:05;;;;;;;3.78;2.28;;;;;;;;;;5076227;28;20044;-48
2022/06/15 05:51:31;;;;;;;8.70;3.92;;;;;;;;;;5075881;28;20036;-51
2022/06/15 05:53:57;;;;;;;21.02;7.53;;;;;;;;;;5075832;28;20039;-53
2022/06/15 05:56:23;;;;;;;12.55;5.38;;;;;;;;;;5075808;28;20032;-49
2022/06/15 05:58:49;;;;;;;9.82;3.33;;;;;;;;;;5075908;28;20021;-50
2022/06/15 06:01:24;;;;;;;19.95;5.32;;;;;;;;;;5076036;28;20035;-53
2022/06/15 06:03:50;;;;;;;7.50;2.90;;;;;;;;;;5075957;28;20476;-51
2022/06/15 06:06:15;;;;;;;9.52;4.43;;;;;;;;;;5075959;28;20036;-51
2022/06/15 06:08:41;;;;;;;5.80;2.80;;;;;;;;;;5075584;28;20366;-52
2022/06/15 06:11:06;;;;;;;3.08;1.75;;;;;;;;;;5075525;28;20357;-51
2022/06/15 06:13:31;;;;;;;8.52;3.35;;;;;;;;;;5075856;28;20033;-52
2022/06/15 06:15:57;;;;;;;8.27;2.55;;;;;;;;;;5075695;28;20020;-53
2022/06/15 06:18:23;;;;;;;5.43;2.90;;;;;;;;;;5075265;28;20388;-52
2022/06/15 06:20:50;;;;;;;4.25;1.80;;;;;;;;;;5073907;28;20028;-52
2022/06/15 06:23:15;;;;;;;5.18;3.10;;;;;;;;;;5075169;28;20049;-50
2022/06/15 06:25:46;;;;;;;6.13;2.60;;;;;;;;;;5075302;28;20023;-53
2022/06/15 06:28:24;;;;;;;4.30;1.80;;;;;;;;;;5075448;28;20103;-53
2022/06/15 06:30:50;;;;;;;14.15;7.22;;;;;;;;;;5075289;28;20511;-52
2022/06/15 06:33:15;;;;;;;8.60;2.55;;;;;;;;;;5075379;28;20036;-53
2022/06/15 06:35:41;;;;;;;8.57;4.15;;;;;;;;;;5075135;28;20027;-51
2022/06/15 06:38:07;;;;;;;13.32;5.13;;;;;;;;;;5075281;28;20538;-50
2022/06/15 06:40:32;;;;;;;9.82;5.40;;;;;;;;;;5074987;28;20025;-53
2022/06/15 06:42:58;;;;;;;5.22;1.90;;;;;;;;;;5075270;28;20028;-51
2022/06/15 06:45:23;;;;;;;9.68;4.90;;;;;;;;;;5075101;28;20029;-53
2022/06/15 06:47:49;;;;;;;8.90;2.15;;;;;;;;;;5075083;28;20480;-54
2022/06/15 06:50:14;;;;;;;4.00;2.03;;;;;;;;;;5074894;28;20066;-53
2022/06/15 06:52:41;;;;;;;13.68;4.72;;;;;;;;;;5075167;28;20468;-51
2022/06/15 06:55:07;;;;;;;2.65;2.00;;;;;;;;;;5074812;28;20021;-50
2022/06/15 06:57:32;;;;;;;15.95;9.60;;;;;;;;;;5074914;28;20146;-53
2022/06/15 06:59:58;;;;;;;23.98;6.50;;;;;;;;;;5074278;28;20071;-52
2022/06/15 07:02:23;;;;;;;9.63;3.20;;;;;;;;;;5054750;28;20107;-51
2022/06/15 07:04:49;;;;;;;3.83;2.70;;;;;;;;;;5072788;28;20021;-52
2022/06/15 07:07:14;;;;;;;16.52;3.30;;;;;;;;;;5073278;28;20036;-50
2022/06/15 07:09:39;;;;;;;7.63;4.28;;;;;;;;;;5074482;28;20442;-50
2022/06/15 07:12:06;;;;;;;3.92;2.42;;;;;;;;;;5074555;28;20025;-51
2022/06/15 07:14:31;;;;;;;5.75;3.70;;;;;;;;;;5074390;28;20419;-52
2022/06/15 07:16:57;;;;;;;6.25;2.88;;;;;;;;;;5067182;28;20044;-51
2022/06/15 07:19:22;;;;;;;6.50;3.83;;;;;;;;;;5054920;28;20031;-50
2022/06/15 07:21:48;;;;;;;7.05;4.40;;;;;;;;;;5054766;28;20132;-51
2022/06/15 07:24:13;;;;;;;5.53;2.88;;;;;;;;;;5072958;28;20645;-51
2022/06/15 07:26:42;;;;;;;3.97;2.30;;;;;;;;;;5072599;28;20032;-47
2022/06/15 07:29:12;;;;;;;6.07;2.63;;;;;;;;;;5072456;28;20044;-51
2022/06/15 07:31:42;;;;;;;5.18;2.25;;;;;;;;;;5072745;28;20021;-49
2022/06/15 07:34:08;;;;;;;4.93;2.38;;;;;;;;;;5072819;28;20073;-48
2022/06/15 07:36:39;;;;;;;7.75;2.28;;;;;;;;;;5072680;28;20036;-50
2022/06/15 07:39:06;;;;;;;9.68;4.40;;;;;;;;;;5072238;28;20035;-49
2022/06/15 07:41:32;;;;;;;5.95;2.80;;;;;;;;;;5072251;28;20035;-51
2022/06/15 07:43:58;;;;;;;5.07;2.38;;;;;;;;;;5072122;28;20104;-50
2022/06/15 07:46:24;;;;;;;11.88;2.33;;;;;;;;;;5072513;28;20136;-49
2022/06/15 07:51:38;;;;;;;8.82;3.95;;;;;;;;;;5072108;28;20043;-46
2022/06/15 07:54:09;;;;;;;14.07;5.50;;;;;;;;;;5072153;28;20049;-50
2022/06/15 07:56:35;;;;;;;10.93;4.70;;;;;;;;;;5072404;28;20056;-50
2022/06/15 07:59:00;;;;;;;5.38;2.03;;;;;;;;;;5071948;28;20060;-48
2022/06/15 08:01:26;;;;;;;3.70;1.80;;;;;;;;;;5071878;28;20462;-49
2022/06/15 08:03:51;;;;;;;5.97;2.28;;;;;;;;;;5056606;28;20036;-50
2022/06/15 08:06:18;;;;;;;3.65;1.67;;;;;;;;;;5051516;28;20028;-52
2022/06/15 08:08:44;;;;;;;6.68;2.35;;;;;;;;;;5051721;28;20072;-51
2022/06/15 08:11:10;;;;;;;4.75;2.00;;;;;;;;;;5051584;28;20025;-50
2022/06/15 08:13:36;;;;;;;4.78;1.70;;;;;;;;;;5051959;28;20025;-51
2022/06/15 08:16:02;;;;;;;3.28;1.42;;;;;;;;;;5051522;28;20032;-50
2022/06/15 08:18:32;;;;;;;5.55;3.45;;;;;;;;;;5051677;28;20111;-51
2022/06/15 08:21:11;;;;;;;4.60;2.33;;;;;;;;;;5051651;28;20029;-51
2022/06/15 08:23:41;;;;;;;10.45;3.72;;;;;;;;;;5051328;28;20041;-49
2022/06/15 08:26:12;;;;;;;9.05;2.88;;;;;;;;;;5051422;28;20037;-49
2022/06/15 08:28:39;;;;;;;10.90;3.70;;;;;;;;;;5051645;28;20104;-50
2022/06/15 08:31:05;;;;;;;2.85;1.40;;;;;;;;;;5051705;28;20431;-52
2022/06/15 08:33:30;;;;;;;2.80;1.40;;;;;;;;;;5051250;28;20036;-52
2022/06/15 08:35:56;;;;;;;7.55;3.20;;;;;;;;;;5051255;28;20039;-48
2022/06/15 08:38:24;;;;;;;6.43;3.22;;;;;;;;;;5051420;28;20036;-49
2022/06/15 08:41:00;;;;;;;4.63;2.20;;;;;;;;;;5051524;28;20420;-50
2022/06/15 08:43:48;;;;;;;10.32;6.07;;;;;;;;;;5051335;28;20051;-51
2022/06/15 08:46:40;;;;;;;7.70;4.13;;;;;;;;;;5051543;28;20395;-50
2022/06/15 08:49:17;;;;;;;5.13;2.17;;;;;;;;;;5050919;28;20044;-50
2022/06/15 08:51:47;;;;;;;8.50;4.30;;;;;;;;;;5051130;28;20025;-49
2022/06/15 08:54:39;;;;;;;7.13;3.30;;;;;;;;;;5051047;28;20028;-50
2022/06/15 08:57:14;;;;;;;2.13;1.42;;;;;;;;;;5045876;28;20044;-48
2022/06/15 09:00:01;;;;;;;8.88;5.43;;;;;;;;;;5051168;28;20039;-51
2022/06/15 09:03:04;;;;;;;6.43;3.10;;;;;;;;;;5049990;28;20128;-49
2022/06/15 09:06:04;;;;;;;1.20;1.10;;;;;;;;;;5050890;28;20028;-47
2022/06/15 09:08:39;;;;;;;4.70;1.75;;;;;;;;;;5051233;28;20025;-49
2022/06/15 09:11:26;;;;;;;3.40;1.50;;;;;;;;;;5050769;28;20095;-48
2022/06/15 09:14:10;;;;;;;2.47;1.58;;;;;;;;;;5050553;28;20525;-50
2022/06/15 09:17:01;;;;;;;3.10;1.40;;;;;;;;;;5050686;28;20040;-48
2022/06/15 09:19:36;;;;;;;4.47;1.75;;;;;;;;;;5050670;28;20037;-48
2022/06/15 09:22:08;;;;;;;7.55;2.63;;;;;;;;;;5050436;28;20060;-51
2022/06/15 09:25:01;;;;;;;3.17;1.95;;;;;;;;;;5050895;28;20074;-47
2022/06/15 09:27:33;;;;;;;7.95;3.38;;;;;;;;;;5050612;28;20028;-48
2022/06/15 09:30:08;;;;;;;1.35;1.20;;;;;;;;;;5050937;28;20086;-49
2022/06/15 09:32:39;;;;;;;4.28;2.47;;;;;;;;;;5050480;28;20029;-47
2022/06/15 09:35:16;;;;;;;3.08;1.80;;;;;;;;;;5050914;28;20033;-51
2022/06/15 09:37:45;;;;;;;5.03;1.80;;;;;;;;;;5050419;28;20040;-47
2022/06/15 09:40:11;;;;;;;15.80;2.85;;;;;;;;;;5050538;28;20548;-49
2022/06/15 09:42:54;;;;;;;15.52;7.20;;;;;;;;;;5050437;28;20727;-49
2022/06/15 09:45:49;;;;;;;3.10;1.50;;;;;;;;;;5050589;28;20032;-50
2022/06/15 09:48:30;;;;;;;5.43;1.50;;;;;;;;;;5028831;28;20374;-51
2022/06/15 09:51:02;;;;;;;3.42;2.30;;;;;;;;;;5050494;28;20090;-51
2022/06/15 09:53:41;;;;;;;7.18;3.30;;;;;;;;;;5050556;28;20107;-52
2022/06/15 09:56:11;;;;;;;8.77;2.40;;;;;;;;;;5050288;28;20025;-51
2022/06/15 09:58:46;;;;;;;4.10;1.70;;;;;;;;;;5050430;28;20029;-47
2022/06/15 10:01:13;;;;;;;6.45;1.80;;;;;;;;;;5050599;28;20499;-49
2022/06/15 10:03:46;;;;;;;5.75;2.60;;;;;;;;;;5050244;28;20036;-50
2022/06/15 10:06:37;;;;;;;1.73;1.27;;;;;;;;;;5050611;28;20111;-50
2022/06/15 10:09:07;;;;;;;3.40;1.23;;;;;;;;;;5050559;28;20072;-52
2022/06/15 10:11:36;;;;;;;2.05;1.30;;;;;;;;;;5050516;28;20053;-49
2022/06/15 10:14:28;;;;;;;3.03;1.30;;;;;;;;;;5052683;28;20032;-52
2022/06/15 10:17:01;;;;;;;1.85;1.20;;;;;;;;;;5053825;28;20041;-51
2022/06/15 10:19:30;;;;;;;1.67;1.10;;;;;;;;;;5054202;28;20071;-50
2022/06/15 10:22:02;;;;;;;1.40;1.30;;;;;;;;;;5053291;28;20064;-49
2022/06/15 10:24:35;;;;;;;1.25;1.00;;;;;;;;;;5053623;28;20499;-51
2022/06/15 10:27:16;;;;;;;3.13;1.10;;;;;;;;;;5053690;28;20023;-52
2022/06/15 10:29:42;;;;;;;1.55;1.08;;;;;;;;;;5053931;28;20033;-51
2022/06/15 10:32:08;;;;;;;1.42;1.23;;;;;;;;;;5053860;28;20394;-51
2022/06/15 10:34:57;;;;;;;1.35;0.85;;;;;;;;;;5053863;28;20059;-53
2022/06/15 10:38:01;;;;;;;0.93;0.90;;;;;;;;;;5053842;28;20094;-51
2022/06/15 10:40:32;;;;;;;1.92;1.17;;;;;;;;;;5002420;28;20590;-46
2022/06/15 10:43:13;;;;;;;1.73;1.00;;;;;;;;;;5053627;28;20511;-50
2022/06/15 10:45:42;;;;;;;3.03;0.90;;;;;;;;;;5053458;28;20029;-50
2022/06/15 10:48:26;;;;;;;0.80;0.80;;;;;;;;;;5053395;28;20029;-48
2022/06/15 10:51:04;;;;;;;2.40;0.82;;;;;;;;;;5053641;28;20382;-50
2022/06/15 10:53:39;;;;;;;1.02;1.00;;;;;;;;;;5053550;28;20028;-51
2022/06/15 11:02:07;;;;;;;2.88;1.10;;;;;;;;;;5053309;28;20043;-48
2022/06/15 11:04:45;;;;;;;1.73;1.17;;;;;;;;;;5053086;28;20075;-52
2022/06/15 11:07:22;;;;;;;3.33;1.27;;;;;;;;;;5053049;28;20132;-49
2022/06/15 11:09:54;;;;;;;3.42;1.10;;;;;;;;;;5053253;28;20037;-50
2022/06/15 11:12:29;;;;;;;5.35;2.10;;;;;;;;;;5053208;28;20171;-51
2022/06/15 11:15:01;;;;;;;3.13;1.42;;;;;;;;;;5053100;28;20079;-52
2022/06/15 11:20:38;;;;;;;4.50;1.50;;;;;;;;;;5053159;28;20075;-51
2022/06/15 11:23:27;;;;;;;2.47;1.40;;;;;;;;;;5052720;28;20056;-52
2022/06/15 11:25:59;;;;;;;6.82;1.30;;;;;;;;;;5051596;28;20579;-51
2022/06/15 11:28:36;;;;;;;1.48;0.90;;;;;;;;;;5052693;28;20068;-50
2022/06/15 11:31:10;;;;;;;1.35;1.00;;;;;;;;;;5052530;28;20035;-49
2022/06/15 11:33:49;;;;;;;1.00;0.85;;;;;;;;;;5052769;28;20029;-52
2022/06/15 11:36:36;;;;;;;1.17;1.02;;;;;;;;;;5052416;28;20032;-49
2022/06/15 11:39:15;;;;;;;1.73;1.27;;;;;;;;;;5052400;28;20503;-51
2022/06/15 11:41:47;;;;;;;5.43;2.13;;;;;;;;;;5052730;28;20039;-54
2022/06/15 11:44:24;;;;;;;2.40;1.65;;;;;;;;;;5052386;28;20045;-50
2022/06/15 11:47:12;;;;;;;4.00;1.95;;;;;;;;;;5052195;28;20021;-50
2022/06/15 11:49:54;;;;;;;6.35;1.58;;;;;;;;;;5052235;28;20087;-52
2022/06/15 11:52:48;;;;;;;2.88;1.60;;;;;;;;;;5052510;28;20049;-47
2022/06/15 11:55:22;;;;;;;4.47;2.00;;;;;;;;;;5052425;28;20100;-48
2022/06/15 11:58:23;;;;;;;7.03;1.70;;;;;;;;;;5052026;28;20074;-48
2022/06/15 12:01:14;;;;;;;3.72;2.00;;;;;;;;;;5052250;28;20055;-51
2022/06/15 12:04:01;;;;;;;13.13;5.60;;;;;;;;;;5051989;28;20103;-50
2022/06/15 12:06:34;;;;;;;0.80;0.80;;;;;;;;;;5051945;28;20027;-48
2022/06/15 12:09:24;;;;;;;3.15;1.02;;;;;;;;;;5052040;28;20112;-50
2022/06/15 12:14:53;;;;;;;2.47;1.23;;;;;;;;;;5053648;28;20493;-49
2022/06/15 12:17:50;;;;;;;1.20;1.10;;;;;;;;;;5053223;28;20017;-51
2022/06/15 12:20:25;;;;;;;1.13;0.98;;;;;;;;;;5053466;28;20058;-52
2022/06/15 12:23:11;;;;;;;1.58;1.02;;;;;;;;;;5052908;28;20041;-48
2022/06/15 12:25:46;;;;;;;3.70;1.42;;;;;;;;;;5053054;28;20521;-53
2022/06/15 12:28:44;;;;;;;7.20;2.03;;;;;;;;;;5053355;28;20426;-52
2022/06/15 12:31:37;;;;;;;13.55;6.72;;;;;;;;;;5052293;28;20041;-49
2022/06/15 12:34:09;;;;;;;2.05;1.30;;;;;;;;;;5052667;28;20032;-52
2022/06/15 12:37:18;;;;;;;2.17;0.90;;;;;;;;;;5052663;28;20032;-50
2022/06/15 12:40:06;;;;;;;5.15;1.00;;;;;;;;;;5052158;28;20048;-47
2022/06/15 12:42:32;;;;;;;0.80;0.70;;;;;;;;;;5052818;28;20421;-49
2022/06/15 12:45:03;;;;;;;1.45;1.30;;;;;;;;;;5052892;28;20021;-48
2022/06/15 12:47:29;;;;;;;3.38;1.83;;;;;;;;;;5052983;28;20388;-47
2022/06/15 12:50:01;;;;;;;7.65;2.60;;;;;;;;;;5052497;28;20120;-51
2022/06/15 12:52:46;;;;;;;9.80;2.33;;;;;;;;;;5051378;28;20029;-53
2022/06/15 12:55:33;;;;;;;5.80;2.50;;;;;;;;;;5033440;28;20036;-49
2022/06/15 12:58:20;;;;;;;6.28;1.90;;;;;;;;;;5033628;28;20025;-53
2022/06/15 13:00:53;;;;;;;4.93;2.60;;;;;;;;;;5051235;28;20052;-53
2022/06/15 13:03:43;;;;;;;5.28;2.03;;;;;;;;;;5051109;28;20068;-52
2022/06/15 13:06:27;;;;;;;1.48;1.00;;;;;;;;;;5051132;28;20067;-48
2022/06/15 13:09:06;;;;;;;1.00;0.90;;;;;;;;;;5051098;28;20404;-47
2022/06/15 13:11:42;;;;;;;0.90;0.90;;;;;;;;;;5033043;28;20025;-48
2022/06/15 13:14:15;;;;;;;1.52;1.05;;;;;;;;;;5050844;28;20029;-49
2022/06/15 13:16:56;;;;;;;1.58;1.40;;;;;;;;;;5051095;28;20362;-51
2022/06/15 13:19:38;;;;;;;3.65;1.60;;;;;;;;;;5050861;28;20033;-52
2022/06/15 13:22:20;;;;;;;1.58;0.80;;;;;;;;;;5050614;28;20095;-52
2022/06/15 13:25:03;;;;;;;4.13;1.02;;;;;;;;;;5050591;28;20362;-54
2022/06/15 13:27:39;;;;;;;17.65;5.38;;;;;;;;;;5050614;28;20033;-53
2022/06/15 13:30:26;;;;;;;2.55;0.95;;;;;;;;;;5050559;28;20481;-51
2022/06/15 13:32:57;;;;;;;6.32;2.20;;;;;;;;;;5050537;28;20132;-52
2022/06/15 13:35:25;;;;;;;2.83;1.50;;;;;;;;;;5050734;28;20028;-51
2022/06/15 13:38:28;;;;;;;7.15;2.15;;;;;;;;;;5050533;28;20083;-53
2022/06/15 13:40:53;;;;;;;3.30;1.50;;;;;;;;;;5050715;28;20070;-54
2022/06/15 13:43:53;;;;;;;4.72;1.95;;;;;;;;;;5050879;28;20033;-53
2022/06/15 13:46:29;;;;;;;7.55;3.17;;;;;;;;;;5050374;28;20033;-53
2022/06/15 13:49:14;;;;;;;2.25;1.45;;;;;;;;;;5053196;28;20036;-51
2022/06/15 13:51:47;;;;;;;1.13;0.98;;;;;;;;;;5054818;28;20431;-50
2022/06/15 13:54:31;;;;;;;2.65;1.23;;;;;;;;;;5054030;28;20041;-52
2022/06/15 13:57:12;;;;;;;3.75;1.27;;;;;;;;;;5054640;28;20032;-48
2022/06/15 13:59:49;;;;;;;2.00;1.33;;;;;;;;;;5054434;28;20040;-47
2022/06/15 14:02:30;;;;;;;2.83;2.08;;;;;;;;;;5054461;28;20120;-51
2022/06/15 14:05:24;;;;;;;9.43;2.90;;;;;;;;;;5054230;28;20036;-52
2022/06/15 14:08:39;;;;;;;2.08;1.50;;;;;;;;;;5040615;28;20447;-52
2022/06/15 14:11:42;;;;;;;3.88;1.10;;;;;;;;;;5035583;28;20123;-51
2022/06/15 14:14:13;;;;;;;2.40;1.17;;;;;;;;;;5054279;28;20040;-52
2022/06/15 14:16:51;;;;;;;2.88;1.90;;;;;;;;;;5053939;28;20117;-53
2022/06/15 14:19:27;;;;;;;8.00;3.25;;;;;;;;;;5053833;28;20036;-51
2022/06/15 14:22:13;;;;;;;4.18;1.60;;;;;;;;;;5053628;28;20081;-53
2022/06/15 14:24:39;;;;;;;2.72;1.20;;;;;;;;;;5053636;28;20480;-52
2022/06/15 14:27:09;;;;;;;3.70;1.20;;;;;;;;;;5053762;28;20522;-48
2022/06/15 14:29:42;;;;;;;1.55;0.90;;;;;;;;;;5053937;28;20079;-50
2022/06/15 14:32:30;;;;;;;6.28;1.42;;;;;;;;;;5053734;28;20488;-49
2022/06/15 14:35:12;;;;;;;10.82;2.03;;;;;;;;;;5053867;28;20584;-49
2022/06/15 14:37:38;;;;;;;3.03;1.20;;;;;;;;;;5053571;28;20037;-49
2022/06/15 14:40:04;;;;;;;2.38;1.13;;;;;;;;;;5053613;28;20033;-51
2022/06/15 14:42:54;;;;;;;2.33;1.00;;;;;;;;;;5053374;28;20636;-51
2022/06/15 14:45:22;;;;;;;1.27;0.90;;;;;;;;;;5052795;28;20135;-48
2022/06/15 14:47:53;;;;;;;2.08;1.00;;;;;;;;;;5053168;28;20037;-51
2022/06/15 14:50:19;;;;;;;1.63;1.50;;;;;;;;;;5053234;28;20476;-48
2022/06/15 14:52:44;;;;;;;6.75;4.65;;;;;;;;;;5053075;28;20043;-47
2022/06/15 14:55:22;;;;;;;1.90;0.95;;;;;;;;;;5052983;28;20381;-47
2022/06/15 14:57:49;;;;;;;3.58;2.08;;;;;;;;;;5052236;28;20045;-51
2022/06/15 15:00:30;;;;;;;3.53;1.10;;;;;;;;;;5051709;28;20739;-47
2022/06/15 15:02:57;;;;;;;1.58;0.90;;;;;;;;;;5051538;28;20028;-51
2022/06/15 15:05:27;;;;;;;1.40;1.08;;;;;;;;;;5051964;28;20086;-51
2022/06/15 15:08:18;;;;;;;1.42;0.85;;;;;;;;;;5052844;28;20584;-49
2022/06/15 15:10:43;;;;;;;2.97;2.20;;;;;;;;;;5052838;28;20033;-49
2022/06/15 15:13:21;;;;;;;6.32;1.55;;;;;;;;;;5052527;28;20071;-52
2022/06/15 15:15:51;;;;;;;1.30;1.08;;;;;;;;;;5053048;28;20037;-50
2022/06/15 15:18:46;;;;;;;;;;;;;;;;;;5053575;28;20029;-49
2022/06/15 15:21:22;;;;;;;8.60;0.90;;;;;;;;;;5034874;28;19912;-50
2022/06/15 15:23:48;;;;;;;3.25;1.08;;;;;;;;;;5052468;28;20080;-49
2022/06/15 15:27:02;;;;;;;2.83;1.20;;;;;;;;;;5052924;28;20122;-50
2022/06/15 15:35:29;;;;;;;5.60;1.90;;;;;;;;;;5052396;28;20040;-46
2022/06/15 15:37:56;;;;;;;2.03;1.00;;;;;;;;;;5052312;28;20044;-49
2022/06/15 15:40:24;;;;;;;1.90;1.17;;;;;;;;;;5052110;28;20079;-46
2022/06/15 15:42:51;;;;;;;1.23;1.00;;;;;;;;;;5052504;28;20025;-52